Time;durP1;ratioP1;P1;durP2;ratioP2;P2;SDS_P1;SDS_P2;PMS_P1;PMS_P2;Temp;Humidity;BMP_temperature;BMP_pressure;BME280_temperature;BME280_humidity;BME280_pressure;Samples;Min_cycle;Max_cycle;Signal;HPM_P1;HPM_P2
2021/10/23 00:02:01;;;;;;;54.27;43.80;;;;;;;;;;5015240;28;20171;-69
2021/10/23 00:04:26;;;;;;;54.30;41.00;;;;;;;;;;5026137;28;20201;-68
2021/10/23 00:06:51;;;;;;;55.60;40.30;;;;;;;;;;5023027;28;20632;-70
2021/10/23 00:09:16;;;;;;;49.97;36.97;;;;;;;;;;5027650;28;20154;-69
2021/10/23 00:11:42;;;;;;;53.20;39.10;;;;;;;;;;5033911;28;20158;-69
2021/10/23 00:14:07;;;;;;;49.10;35.33;;;;;;;;;;5033145;28;20660;-70
2021/10/23 00:16:32;;;;;;;44.87;33.40;;;;;;;;;;5023718;28;20645;-68
2021/10/23 00:18:58;;;;;;;43.00;33.70;;;;;;;;;;5022973;28;20204;-70
2021/10/23 00:21:23;;;;;;;43.37;32.50;;;;;;;;;;5028445;28;20165;-71
2021/10/23 00:23:48;;;;;;;48.03;33.87;;;;;;;;;;5032897;28;20193;-68
2021/10/23 00:26:14;;;;;;;43.20;32.87;;;;;;;;;;5029819;28;20672;-68
2021/10/23 00:28:40;;;;;;;50.37;39.47;;;;;;;;;;5026467;28;20162;-73
2021/10/23 00:31:05;;;;;;;63.00;45.97;;;;;;;;;;5031570;28;20654;-69
2021/10/23 00:33:31;;;;;;;59.50;45.90;;;;;;;;;;5027393;28;20170;-73
2021/10/23 00:35:56;;;;;;;60.50;44.70;;;;;;;;;;5013480;28;20165;-73
2021/10/23 00:38:21;;;;;;;63.60;42.30;;;;;;;;;;5013092;28;20652;-73
2021/10/23 00:40:47;;;;;;;54.90;40.23;;;;;;;;;;5015309;28;20625;-72
2021/10/23 00:43:12;;;;;;;57.00;36.40;;;;;;;;;;5013099;28;20173;-69
2021/10/23 00:45:37;;;;;;;47.93;32.30;;;;;;;;;;5014190;28;20193;-70
2021/10/23 00:48:03;;;;;;;39.23;30.40;;;;;;;;;;5023999;28;20189;-70
2021/10/23 00:50:28;;;;;;;45.50;29.87;;;;;;;;;;5012098;28;20201;-68
2021/10/23 00:52:54;;;;;;;48.20;30.63;;;;;;;;;;5031035;28;20189;-69
2021/10/23 00:55:20;;;;;;;41.07;28.33;;;;;;;;;;5030883;28;20162;-69
2021/10/23 00:57:45;;;;;;;41.23;29.73;;;;;;;;;;5029900;28;20424;-69
2021/10/23 01:00:10;;;;;;;39.23;29.40;;;;;;;;;;5013069;28;20237;-69
2021/10/23 01:02:36;;;;;;;42.93;27.50;;;;;;;;;;5012867;28;20249;-68
2021/10/23 01:05:02;;;;;;;42.33;28.30;;;;;;;;;;5025560;28;20757;-71
2021/10/23 01:07:28;;;;;;;39.73;25.70;;;;;;;;;;5030747;28;20233;-74
2021/10/23 01:09:53;;;;;;;40.13;26.00;;;;;;;;;;5031880;28;20507;-68
2021/10/23 01:12:18;;;;;;;35.33;23.53;;;;;;;;;;5014548;28;20652;-72
2021/10/23 01:14:46;;;;;;;34.70;23.00;;;;;;;;;;5015106;28;20159;-69
2021/10/23 01:17:11;;;;;;;34.90;24.07;;;;;;;;;;5030182;28;20170;-69
2021/10/23 01:19:37;;;;;;;38.93;23.73;;;;;;;;;;5030877;28;20404;-71
2021/10/23 01:22:03;;;;;;;32.40;23.77;;;;;;;;;;5021241;28;20165;-69
2021/10/23 01:24:29;;;;;;;35.70;22.90;;;;;;;;;;5032236;28;20749;-67
2021/10/23 01:26:54;;;;;;;45.73;23.73;;;;;;;;;;5012642;28;20484;-69
2021/10/23 01:29:20;;;;;;;34.60;22.73;;;;;;;;;;5012284;28;20428;-69
2021/10/23 01:31:47;;;;;;;39.97;22.90;;;;;;;;;;5012474;28;20202;-70
2021/10/23 01:34:14;;;;;;;36.50;22.23;;;;;;;;;;5012477;28;20840;-69
2021/10/23 01:36:43;;;;;;;39.93;23.73;;;;;;;;;;5012067;28;20460;-69
2021/10/23 01:39:09;;;;;;;35.63;22.77;;;;;;;;;;5016164;28;20404;-70
2021/10/23 01:41:34;;;;;;;43.50;23.40;;;;;;;;;;5031558;28;20451;-68
2021/10/23 01:43:59;;;;;;;33.13;22.10;;;;;;;;;;5031682;28;20632;-69
2021/10/23 01:46:25;;;;;;;34.67;23.87;;;;;;;;;;5031196;28;20154;-68
2021/10/23 01:48:51;;;;;;;34.77;22.90;;;;;;;;;;5031621;28;20181;-69
2021/10/23 01:51:16;;;;;;;31.13;19.73;;;;;;;;;;5013443;28;20404;-71
2021/10/23 01:53:41;;;;;;;35.10;23.47;;;;;;;;;;5012270;28;20205;-70
2021/10/23 01:56:07;;;;;;;29.00;19.73;;;;;;;;;;5024543;28;20162;-68
2021/10/23 01:58:32;;;;;;;31.40;19.80;;;;;;;;;;5031337;28;20197;-69
2021/10/23 02:00:57;;;;;;;33.90;22.37;;;;;;;;;;5029357;28;20153;-72
2021/10/23 02:03:23;;;;;;;34.77;22.13;;;;;;;;;;5031473;28;20241;-68
2021/10/23 02:05:48;;;;;;;34.60;23.00;;;;;;;;;;5030986;28;20193;-68
2021/10/23 02:08:13;;;;;;;35.60;23.07;;;;;;;;;;5028848;28;20596;-71
2021/10/23 02:10:39;;;;;;;37.30;23.60;;;;;;;;;;5031228;28;20161;-72
2021/10/23 02:13:04;;;;;;;33.80;23.97;;;;;;;;;;5029710;28;20145;-72
2021/10/23 02:15:29;;;;;;;35.80;24.10;;;;;;;;;;5030717;28;20177;-69
2021/10/23 02:17:55;;;;;;;29.53;22.07;;;;;;;;;;5031218;28;20249;-72
2021/10/23 02:20:20;;;;;;;41.97;23.37;;;;;;;;;;5026831;28;20154;-69
2021/10/23 02:22:45;;;;;;;30.70;21.93;;;;;;;;;;5011398;28;20158;-70
2021/10/23 02:25:13;;;;;;;34.10;23.13;;;;;;;;;;5011086;28;20204;-69
2021/10/23 02:27:38;;;;;;;41.53;24.97;;;;;;;;;;5021663;28;20236;-71
2021/10/23 02:30:05;;;;;;;30.23;21.73;;;;;;;;;;5030364;28;20397;-70
2021/10/23 02:32:31;;;;;;;36.13;20.70;;;;;;;;;;5011426;28;20644;-70
2021/10/23 02:34:56;;;;;;;35.53;21.33;;;;;;;;;;5011465;28;20410;-69
2021/10/23 02:37:21;;;;;;;30.23;21.30;;;;;;;;;;5011226;28;20224;-67
2021/10/23 02:39:46;;;;;;;34.13;22.93;;;;;;;;;;5023221;28;20162;-69
2021/10/23 02:42:12;;;;;;;36.17;22.03;;;;;;;;;;5029314;28;20165;-73
2021/10/23 02:44:37;;;;;;;38.33;21.23;;;;;;;;;;5029550;28;20193;-70
2021/10/23 02:47:02;;;;;;;34.67;22.47;;;;;;;;;;5030261;28;20204;-68
2021/10/23 02:49:28;;;;;;;42.43;21.10;;;;;;;;;;5018610;28;20324;-73
2021/10/23 02:51:53;;;;;;;33.63;22.87;;;;;;;;;;5015914;28;20584;-70
2021/10/23 02:54:18;;;;;;;33.90;21.30;;;;;;;;;;5030059;28;20150;-68
2021/10/23 02:56:44;;;;;;;31.10;20.60;;;;;;;;;;5016279;28;20158;-69
2021/10/23 02:59:09;;;;;;;31.20;20.50;;;;;;;;;;5025620;28;20161;-68
2021/10/23 03:01:35;;;;;;;34.30;20.80;;;;;;;;;;5030194;28;20292;-72
2021/10/23 03:04:00;;;;;;;36.43;21.80;;;;;;;;;;5029535;28;20239;-69
2021/10/23 03:06:25;;;;;;;31.33;20.80;;;;;;;;;;5030438;28;20181;-68
2021/10/23 03:08:51;;;;;;;32.10;22.33;;;;;;;;;;5029596;28;20256;-69
2021/10/23 03:11:16;;;;;;;32.43;20.30;;;;;;;;;;5017806;28;20458;-72
2021/10/23 03:13:42;;;;;;;36.00;20.40;;;;;;;;;;5011729;28;20641;-74
2021/10/23 03:16:07;;;;;;;34.20;20.67;;;;;;;;;;5014679;28;20151;-74
2021/10/23 03:18:32;;;;;;;30.13;19.37;;;;;;;;;;5031425;28;20478;-67
2021/10/23 03:20:58;;;;;;;27.03;19.43;;;;;;;;;;5014551;28;20618;-74
2021/10/23 03:23:23;;;;;;;29.27;19.97;;;;;;;;;;5014835;28;20181;-72
2021/10/23 03:25:49;;;;;;;30.80;19.37;;;;;;;;;;5026757;28;20231;-71
2021/10/23 03:28:14;;;;;;;29.70;19.53;;;;;;;;;;5034319;28;20675;-68
2021/10/23 03:30:39;;;;;;;34.73;20.53;;;;;;;;;;5033998;28;20569;-73
2021/10/23 03:33:05;;;;;;;28.93;19.20;;;;;;;;;;5033914;28;20807;-69
2021/10/23 03:35:30;;;;;;;27.03;19.70;;;;;;;;;;5032934;28;20158;-70
2021/10/23 03:37:55;;;;;;;24.20;17.60;;;;;;;;;;5012828;28;20218;-70
2021/10/23 03:40:21;;;;;;;28.60;18.20;;;;;;;;;;5014571;28;20808;-69
2021/10/23 03:42:46;;;;;;;30.43;21.23;;;;;;;;;;5033676;28;20150;-69
2021/10/23 03:45:12;;;;;;;41.80;19.03;;;;;;;;;;5021946;28;20320;-71
2021/10/23 03:47:38;;;;;;;26.03;17.40;;;;;;;;;;5032799;28;20529;-73
2021/10/23 03:50:04;;;;;;;30.93;18.57;;;;;;;;;;5033985;28;21037;-68
2021/10/23 03:52:29;;;;;;;23.70;16.00;;;;;;;;;;5033798;28;20677;-71
2021/10/23 03:54:55;;;;;;;28.00;16.80;;;;;;;;;;5032200;28;20409;-68
2021/10/23 03:57:20;;;;;;;33.60;18.50;;;;;;;;;;5022910;28;20154;-69
2021/10/23 03:59:45;;;;;;;32.80;18.93;;;;;;;;;;5023332;28;20707;-70
2021/10/23 04:02:11;;;;;;;31.10;17.93;;;;;;;;;;5028491;28;20244;-68
2021/10/23 04:04:36;;;;;;;30.20;17.67;;;;;;;;;;5033365;28;20195;-67
2021/10/23 04:07:03;;;;;;;27.23;18.20;;;;;;;;;;5032810;28;20162;-68
2021/10/23 04:09:28;;;;;;;26.20;18.53;;;;;;;;;;5032176;28;20162;-69
2021/10/23 04:11:54;;;;;;;31.83;18.50;;;;;;;;;;5021335;28;20390;-70
2021/10/23 04:14:19;;;;;;;26.33;18.27;;;;;;;;;;5013851;28;20155;-69
2021/10/23 04:16:45;;;;;;;29.00;19.30;;;;;;;;;;5023808;28;20223;-69
2021/10/23 04:19:10;;;;;;;28.07;17.47;;;;;;;;;;5017896;28;20166;-69
2021/10/23 04:21:35;;;;;;;29.00;19.30;;;;;;;;;;5018318;28;20205;-74
2021/10/23 04:24:01;;;;;;;28.23;18.60;;;;;;;;;;5013493;28;20240;-68
2021/10/23 04:26:26;;;;;;;25.10;17.80;;;;;;;;;;5012071;28;20170;-69
2021/10/23 04:28:51;;;;;;;29.20;17.87;;;;;;;;;;5013657;28;20163;-68
2021/10/23 04:31:17;;;;;;;27.53;18.07;;;;;;;;;;5013272;28;20167;-70
2021/10/23 04:33:42;;;;;;;27.10;18.57;;;;;;;;;;5026325;28;20539;-69
2021/10/23 04:36:07;;;;;;;27.63;18.23;;;;;;;;;;5032500;28;20196;-74
2021/10/23 04:38:33;;;;;;;28.00;18.77;;;;;;;;;;5030701;28;20217;-69
2021/10/23 04:40:58;;;;;;;29.60;17.80;;;;;;;;;;5013239;28;20168;-68
2021/10/23 04:43:23;;;;;;;31.53;18.03;;;;;;;;;;5026085;28;20170;-70
2021/10/23 04:45:49;;;;;;;28.70;19.83;;;;;;;;;;5032693;28;20224;-72
2021/10/23 04:48:14;;;;;;;27.83;19.40;;;;;;;;;;5019306;28;20568;-69
2021/10/23 04:50:40;;;;;;;29.50;17.10;;;;;;;;;;5013207;28;20190;-69
2021/10/23 04:53:05;;;;;;;27.97;18.00;;;;;;;;;;5024608;28;20227;-67
2021/10/23 04:55:30;;;;;;;28.03;18.00;;;;;;;;;;5032343;28;20157;-68
2021/10/23 04:57:57;;;;;;;27.93;17.83;;;;;;;;;;5032735;28;20150;-70
2021/10/23 05:00:23;;;;;;;26.27;18.77;;;;;;;;;;5032478;28;20166;-69
2021/10/23 05:02:48;;;;;;;32.13;18.50;;;;;;;;;;5028425;28;20403;-69
2021/10/23 05:05:13;;;;;;;32.53;20.87;;;;;;;;;;5029328;28;20201;-69
2021/10/23 05:07:39;;;;;;;31.10;17.83;;;;;;;;;;5017510;28;20173;-73
2021/10/23 05:10:04;;;;;;;34.60;19.33;;;;;;;;;;5012738;28;20162;-71
2021/10/23 05:12:30;;;;;;;28.87;19.30;;;;;;;;;;5029863;28;20644;-70
2021/10/23 05:14:55;;;;;;;29.63;19.73;;;;;;;;;;5032150;28;20656;-70
2021/10/23 05:17:20;;;;;;;34.87;22.20;;;;;;;;;;5016528;28;20617;-70
2021/10/23 05:19:46;;;;;;;31.27;19.27;;;;;;;;;;5012236;28;20249;-69
2021/10/23 05:22:11;;;;;;;31.73;20.90;;;;;;;;;;5012974;28;20245;-70
2021/10/23 05:24:36;;;;;;;39.40;22.30;;;;;;;;;;5023051;28;20188;-73
2021/10/23 05:27:02;;;;;;;34.13;19.27;;;;;;;;;;5017532;28;20549;-69
2021/10/23 05:29:27;;;;;;;30.07;20.80;;;;;;;;;;5012246;28;20158;-70
2021/10/23 05:31:52;;;;;;;30.63;20.87;;;;;;;;;;5021507;28;20625;-69
2021/10/23 05:34:18;;;;;;;35.83;15.20;;;;;;;;;;5030198;28;20158;-69
2021/10/23 05:36:43;;;;;;;25.63;19.43;;;;;;;;;;5028187;28;20202;-70
2021/10/23 05:39:08;;;;;;;33.73;21.67;;;;;;;;;;5020757;28;20165;-66
2021/10/23 05:41:34;;;;;;;32.23;21.03;;;;;;;;;;5032038;28;20241;-68
2021/10/23 05:43:59;;;;;;;32.50;20.00;;;;;;;;;;5031622;28;20264;-69
2021/10/23 05:46:25;;;;;;;40.53;21.93;;;;;;;;;;5031702;28;20274;-73
2021/10/23 05:48:50;;;;;;;27.90;18.70;;;;;;;;;;5030226;28;20741;-69
2021/10/23 05:51:15;;;;;;;30.47;19.90;;;;;;;;;;5024652;28;20246;-71
2021/10/23 05:53:41;;;;;;;32.27;19.70;;;;;;;;;;5018929;28;20169;-70
2021/10/23 05:56:06;;;;;;;30.00;18.30;;;;;;;;;;5031379;28;20231;-71
2021/10/23 05:58:31;;;;;;;32.37;18.80;;;;;;;;;;5031519;28;20165;-73
2021/10/23 06:01:00;;;;;;;28.90;18.20;;;;;;;;;;5029609;28;20633;-68
2021/10/23 06:03:26;;;;;;;30.63;20.40;;;;;;;;;;5017701;28;20692;-69
2021/10/23 06:05:51;;;;;;;33.00;21.27;;;;;;;;;;5012325;28;20457;-72
2021/10/23 06:08:17;;;;;;;44.90;24.70;;;;;;;;;;5028710;28;20942;-69
2021/10/23 06:10:42;;;;;;;41.63;26.50;;;;;;;;;;5031006;28;20146;-69
2021/10/23 06:13:08;;;;;;;43.23;27.10;;;;;;;;;;5018509;28;20262;-69
2021/10/23 06:15:33;;;;;;;37.90;23.83;;;;;;;;;;5015963;28;20173;-69
2021/10/23 06:18:02;;;;;;;33.50;22.27;;;;;;;;;;5011433;28;20228;-70
2021/10/23 06:20:27;;;;;;;35.53;21.37;;;;;;;;;;5022361;28;20164;-71
2021/10/23 06:22:53;;;;;;;30.73;19.07;;;;;;;;;;5014839;28;20397;-69
2021/10/23 06:25:18;;;;;;;37.47;20.50;;;;;;;;;;5011176;28;20195;-69
2021/10/23 06:27:45;;;;;;;25.97;19.10;;;;;;;;;;5021506;28;20232;-70
2021/10/23 06:30:11;;;;;;;32.63;20.20;;;;;;;;;;5028930;28;20154;-72
2021/10/23 06:32:49;;;;;;;51.77;20.90;;;;;;;;;;5024790;28;20408;-70
2021/10/23 06:35:15;;;;;;;28.97;19.70;;;;;;;;;;5011338;28;20240;-69
2021/10/23 06:37:42;;;;;;;31.70;19.23;;;;;;;;;;5023412;28;21055;-72
2021/10/23 06:40:08;;;;;;;37.77;21.37;;;;;;;;;;5022267;28;20227;-69
2021/10/23 06:42:33;;;;;;;29.67;19.53;;;;;;;;;;5030803;28;20416;-69
2021/10/23 06:44:59;;;;;;;27.67;18.03;;;;;;;;;;5030510;28;20667;-70
2021/10/23 06:47:24;;;;;;;28.60;19.40;;;;;;;;;;5023705;28;20297;-70
2021/10/23 06:49:51;;;;;;;33.30;19.50;;;;;;;;;;5009960;28;20675;-70
2021/10/23 06:52:16;;;;;;;33.77;19.17;;;;;;;;;;5022960;28;20150;-71
2021/10/23 06:54:42;;;;;;;28.20;18.00;;;;;;;;;;5030312;28;20400;-70
2021/10/23 06:57:07;;;;;;;36.27;19.33;;;;;;;;;;5030112;28;20249;-70
2021/10/23 06:59:32;;;;;;;39.27;21.43;;;;;;;;;;5028431;28;20184;-69
2021/10/23 07:01:58;;;;;;;29.13;18.10;;;;;;;;;;5018439;28;20153;-69
2021/10/23 07:04:23;;;;;;;28.70;18.83;;;;;;;;;;5028628;28;20285;-70
2021/10/23 07:06:48;;;;;;;33.80;20.10;;;;;;;;;;5030298;28;20149;-69
2021/10/23 07:09:14;;;;;;;34.43;20.53;;;;;;;;;;5018576;28;20640;-69
2021/10/23 07:11:39;;;;;;;30.00;19.93;;;;;;;;;;5018940;28;20162;-70
2021/10/23 07:14:05;;;;;;;32.27;21.43;;;;;;;;;;5030019;28;20773;-69
2021/10/23 07:16:31;;;;;;;31.87;19.17;;;;;;;;;;5030116;28;20164;-70
2021/10/23 07:18:56;;;;;;;27.33;17.73;;;;;;;;;;5030354;28;20780;-69
2021/10/23 07:21:23;;;;;;;31.53;20.90;;;;;;;;;;5030217;28;20157;-74
2021/10/23 07:23:49;;;;;;;31.57;21.33;;;;;;;;;;5029985;28;20154;-68
2021/10/23 07:26:15;;;;;;;31.10;18.40;;;;;;;;;;5016717;28;20990;-69
2021/10/23 07:28:41;;;;;;;28.23;16.97;;;;;;;;;;5010410;28;20385;-69
2021/10/23 07:31:06;;;;;;;30.07;20.10;;;;;;;;;;5010318;28;20402;-70
2021/10/23 07:33:31;;;;;;;24.53;19.23;;;;;;;;;;5010139;28;20163;-68
2021/10/23 07:35:57;;;;;;;29.27;19.47;;;;;;;;;;5010481;28;20171;-70
2021/10/23 07:38:22;;;;;;;36.40;19.23;;;;;;;;;;5010624;28;20692;-69
2021/10/23 07:40:47;;;;;;;28.67;21.43;;;;;;;;;;5029846;28;20160;-69
2021/10/23 07:43:14;;;;;;;38.60;21.30;;;;;;;;;;5029987;28;20507;-68
2021/10/23 07:45:39;;;;;;;35.63;22.00;;;;;;;;;;5026697;28;20680;-69
2021/10/23 07:48:05;;;;;;;31.17;21.70;;;;;;;;;;5029581;28;20427;-68
2021/10/23 07:50:30;;;;;;;25.90;17.50;;;;;;;;;;5027656;28;20162;-68
2021/10/23 07:53:01;;;;;;;19.83;13.53;;;;;;;;;;5029984;28;20154;-70
2021/10/23 07:55:26;;;;;;;24.77;15.53;;;;;;;;;;5028529;28;20586;-68
2021/10/23 07:57:51;;;;;;;20.97;13.87;;;;;;;;;;5010328;28;20922;-69
2021/10/23 08:00:17;;;;;;;20.40;13.70;;;;;;;;;;5011789;28;20166;-71
2021/10/23 08:02:52;;;;;;;19.30;11.90;;;;;;;;;;5023201;28;20634;-69
2021/10/23 08:05:18;;;;;;;16.07;10.80;;;;;;;;;;5016170;28;20284;-71
2021/10/23 08:07:44;;;;;;;16.07;11.23;;;;;;;;;;5013653;28;20396;-70
2021/10/23 08:10:10;;;;;;;19.67;12.60;;;;;;;;;;5013735;28;20163;-68
2021/10/23 08:12:35;;;;;;;15.50;11.00;;;;;;;;;;5029196;28;20447;-70
2021/10/23 08:15:00;;;;;;;20.07;11.47;;;;;;;;;;5020164;28;20166;-71
2021/10/23 08:17:26;;;;;;;24.10;12.23;;;;;;;;;;5029691;28;20651;-70
2021/10/23 08:19:54;;;;;;;17.17;12.07;;;;;;;;;;5013911;28;20155;-72
2021/10/23 08:22:20;;;;;;;20.23;12.70;;;;;;;;;;5013366;28;20147;-70
2021/10/23 08:24:47;;;;;;;20.33;12.67;;;;;;;;;;5012915;28;20483;-72
2021/10/23 08:27:12;;;;;;;26.70;13.87;;;;;;;;;;5030698;28;20158;-72
2021/10/23 08:29:38;;;;;;;18.97;12.77;;;;;;;;;;5031835;28;20489;-71
2021/10/23 08:32:03;;;;;;;27.63;15.10;;;;;;;;;;5018239;28;20158;-71
2021/10/23 08:34:28;;;;;;;23.90;13.93;;;;;;;;;;5026294;28;20189;-71
2021/10/23 08:36:54;;;;;;;23.27;14.77;;;;;;;;;;5047308;28;20754;-72
2021/10/23 08:39:19;;;;;;;24.60;14.60;;;;;;;;;;5032770;28;20179;-71
2021/10/23 08:41:44;;;;;;;22.30;13.73;;;;;;;;;;5018943;28;20167;-70
2021/10/23 08:44:12;;;;;;;21.17;12.97;;;;;;;;;;5012266;28;20578;-70
2021/10/23 08:46:40;;;;;;;17.70;12.50;;;;;;;;;;5013703;28;20171;-71
2021/10/23 08:49:06;;;;;;;18.77;10.70;;;;;;;;;;5012764;28;20531;-72
2021/10/23 08:51:32;;;;;;;19.30;12.73;;;;;;;;;;5017716;28;20416;-72
2021/10/23 08:53:58;;;;;;;19.40;11.07;;;;;;;;;;5032100;28;20443;-72
2021/10/23 08:56:23;;;;;;;20.73;12.50;;;;;;;;;;5031963;28;20424;-71
2021/10/23 08:58:48;;;;;;;18.63;11.73;;;;;;;;;;5032083;28;20149;-72
2021/10/23 09:01:14;;;;;;;19.07;11.83;;;;;;;;;;5030371;28;20244;-76
2021/10/23 09:03:43;;;;;;;18.93;11.37;;;;;;;;;;5032754;28;20165;-74
2021/10/23 09:06:27;;;;;;;17.83;11.47;;;;;;;;;;5015637;28;20449;-71
2021/10/23 09:08:58;;;;;;;20.97;11.67;;;;;;;;;;5012167;28;20755;-75
2021/10/23 09:11:27;;;;;;;19.50;10.93;;;;;;;;;;5020386;28;20397;-73
2021/10/23 09:13:53;;;;;;;18.97;8.97;;;;;;;;;;5032027;28;20385;-70
2021/10/23 09:16:18;;;;;;;15.73;11.10;;;;;;;;;;5030600;28;20388;-71
2021/10/23 09:18:46;;;;;;;21.00;10.00;;;;;;;;;;5011907;28;20167;-72
2021/10/23 09:21:21;;;;;;;20.33;11.27;;;;;;;;;;5012455;28;20151;-70
2021/10/23 09:23:47;;;;;;;14.40;10.75;;;;;;;;;;5011692;28;20495;-71
2021/10/23 09:26:33;;;;;;;16.23;9.63;;;;;;;;;;5010915;28;20920;-71
2021/10/23 09:29:14;;;;;;;15.77;10.90;;;;;;;;;;5009880;28;20397;-68
2021/10/23 09:31:41;;;;;;;16.70;10.20;;;;;;;;;;5029710;28;20440;-71
2021/10/23 09:34:08;;;;;;;15.10;10.37;;;;;;;;;;5028937;28;20419;-70
2021/10/23 09:36:39;;;;;;;15.43;10.00;;;;;;;;;;5031164;28;20484;-71
2021/10/23 09:39:08;;;;;;;14.20;10.40;;;;;;;;;;5028359;28;20450;-68
2021/10/23 09:41:33;;;;;;;14.47;9.00;;;;;;;;;;5021855;28;20905;-70
2021/10/23 09:44:14;;;;;;;13.93;10.07;;;;;;;;;;5030813;28;20449;-71
2021/10/23 09:46:52;;;;;;;16.60;9.97;;;;;;;;;;5029696;28;20241;-70
2021/10/23 09:49:18;;;;;;;17.93;9.07;;;;;;;;;;5030862;28;20413;-71
2021/10/23 09:51:43;;;;;;;13.83;9.80;;;;;;;;;;5030939;28;20450;-72
2021/10/23 09:54:13;;;;;;;17.13;9.97;;;;;;;;;;5027412;28;20150;-71
2021/10/23 09:56:48;;;;;;;15.70;8.70;;;;;;;;;;5030540;28;20174;-71
2021/10/23 09:59:24;;;;;;;14.13;9.00;;;;;;;;;;5030922;28;20919;-74
2021/10/23 10:01:50;;;;;;;16.83;6.80;;;;;;;;;;5028644;28;20393;-72
2021/10/23 10:04:16;;;;;;;16.47;9.17;;;;;;;;;;5018745;28;20570;-73
2021/10/23 10:06:42;;;;;;;13.33;8.53;;;;;;;;;;5020959;28;20173;-74
2021/10/23 10:09:08;;;;;;;15.10;7.50;;;;;;;;;;5030555;28;20161;-70
2021/10/23 10:11:34;;;;;;;10.10;6.23;;;;;;;;;;5030426;28;20369;-70
2021/10/23 10:13:59;;;;;;;10.70;4.97;;;;;;;;;;5030832;28;20385;-72
2021/10/23 10:16:26;;;;;;;8.00;5.30;;;;;;;;;;5022566;28;20317;-71
2021/10/23 10:18:52;;;;;;;8.10;4.67;;;;;;;;;;5022936;28;20200;-71
2021/10/23 10:21:19;;;;;;;7.30;4.83;;;;;;;;;;5030326;28;20381;-73
2021/10/23 10:23:45;;;;;;;8.87;4.07;;;;;;;;;;5024674;28;20531;-71
2021/10/23 10:26:27;;;;;;;8.70;3.93;;;;;;;;;;5017523;28;20471;-71
2021/10/23 10:29:12;;;;;;;16.30;5.00;;;;;;;;;;5019247;28;20459;-71
2021/10/23 10:31:50;;;;;;;8.53;4.87;;;;;;;;;;5025443;28;20404;-70
2021/10/23 10:34:35;;;;;;;8.03;5.63;;;;;;;;;;5029821;28;20396;-70
2021/10/23 10:42:54;;;;;;;7.40;5.17;;;;;;;;;;5028392;28;20427;-69
2021/10/23 10:45:23;;;;;;;9.80;5.40;;;;;;;;;;5021554;28;20530;-71
2021/10/23 10:48:06;;;;;;;9.30;5.20;;;;;;;;;;5028136;28;20428;-72
2021/10/23 10:50:35;;;;;;;8.77;5.50;;;;;;;;;;5021691;28;20412;-71
2021/10/23 10:53:13;;;;;;;7.90;5.30;;;;;;;;;;5025799;28;20393;-69
2021/10/23 10:55:41;;;;;;;8.40;5.13;;;;;;;;;;5016820;28;20401;-68
2021/10/23 10:58:06;;;;;;;8.00;5.20;;;;;;;;;;5020429;28;20459;-71
2021/10/23 11:00:51;;;;;;;12.30;5.30;;;;;;;;;;5028500;28;20405;-68
2021/10/23 11:03:36;;;;;;;8.80;4.90;;;;;;;;;;5024966;28;20161;-75
2021/10/23 11:06:20;;;;;;;9.13;4.37;;;;;;;;;;5028774;28;20456;-70
2021/10/23 11:08:46;;;;;;;9.53;5.60;;;;;;;;;;5028793;28;20989;-70
2021/10/23 11:11:11;;;;;;;7.70;4.93;;;;;;;;;;5029456;28;20534;-74
2021/10/23 11:13:43;;;;;;;7.90;4.73;;;;;;;;;;5028183;28;20292;-72
2021/10/23 11:16:28;;;;;;;16.20;6.20;;;;;;;;;;5029574;28;20181;-71
2021/10/23 11:18:54;;;;;;;9.50;3.97;;;;;;;;;;5029318;28;20424;-72
2021/10/23 11:21:19;;;;;;;12.47;5.20;;;;;;;;;;5010227;28;20555;-70
2021/10/23 11:23:50;;;;;;;7.60;4.60;;;;;;;;;;5009733;28;20864;-71
2021/10/23 11:26:15;;;;;;;7.37;4.50;;;;;;;;;;5019312;28;20229;-68
2021/10/23 11:28:41;;;;;;;6.73;4.00;;;;;;;;;;5009689;28;20444;-69
2021/10/23 11:31:15;;;;;;;6.87;3.17;;;;;;;;;;5017182;28;20162;-70
2021/10/23 11:33:41;;;;;;;11.30;4.87;;;;;;;;;;5029182;28;20150;-71
2021/10/23 11:36:12;;;;;;;6.27;3.27;;;;;;;;;;5032294;28;20457;-72
2021/10/23 11:38:38;;;;;;;8.87;3.97;;;;;;;;;;5033310;28;20181;-70
2021/10/23 11:41:04;;;;;;;8.40;4.43;;;;;;;;;;5033242;28;20388;-69
2021/10/23 11:43:32;;;;;;;7.10;3.57;;;;;;;;;;5032122;28;20165;-70
2021/10/23 11:45:59;;;;;;;7.77;4.10;;;;;;;;;;5033097;28;20475;-68
2021/10/23 11:48:25;;;;;;;6.03;3.80;;;;;;;;;;5033312;28;20913;-69
2021/10/23 11:50:52;;;;;;;8.43;4.20;;;;;;;;;;5033192;28;20392;-69
2021/10/23 11:53:18;;;;;;;10.57;5.00;;;;;;;;;;5033146;28;20150;-70
2021/10/23 11:55:47;;;;;;;6.00;3.83;;;;;;;;;;5032933;28;20415;-70
2021/10/23 11:58:17;;;;;;;6.67;3.37;;;;;;;;;;5032989;28;20651;-68
2021/10/23 12:00:44;;;;;;;6.27;3.90;;;;;;;;;;5032697;28;20393;-71
2021/10/23 12:03:14;;;;;;;10.83;4.10;;;;;;;;;;5032278;28;20380;-70
2021/10/23 12:05:48;;;;;;;5.80;3.57;;;;;;;;;;5032695;28;20534;-71
2021/10/23 12:08:28;;;;;;;13.97;3.50;;;;;;;;;;5032529;28;20823;-70
2021/10/23 12:10:56;;;;;;;11.60;4.10;;;;;;;;;;5031404;28;20435;-71
2021/10/23 12:13:22;;;;;;;5.83;3.40;;;;;;;;;;5032795;28;20450;-70
2021/10/23 12:16:03;;;;;;;5.50;2.90;;;;;;;;;;5032834;28;20392;-72
2021/10/23 12:18:55;;;;;;;7.10;3.53;;;;;;;;;;5031318;28;20300;-71
2021/10/23 12:21:21;;;;;;;5.90;3.40;;;;;;;;;;5039035;28;20423;-72
2021/10/23 12:23:48;;;;;;;5.60;2.90;;;;;;;;;;5032785;28;20416;-73
2021/10/23 12:26:14;;;;;;;6.70;3.77;;;;;;;;;;5021436;28;20453;-72
2021/10/23 12:28:58;;;;;;;7.37;3.73;;;;;;;;;;5012631;28;20777;-71
2021/10/23 12:31:24;;;;;;;6.70;3.40;;;;;;;;;;5018299;28;20548;-73
2021/10/23 12:34:02;;;;;;;7.40;3.40;;;;;;;;;;5012523;28;20875;-72
2021/10/23 12:36:27;;;;;;;5.40;3.47;;;;;;;;;;5012567;28;20166;-73
2021/10/23 12:38:53;;;;;;;8.77;3.73;;;;;;;;;;5012244;28;20432;-72
2021/10/23 12:41:18;;;;;;;7.50;3.80;;;;;;;;;;5012571;28;20248;-73
2021/10/23 12:43:44;;;;;;;7.00;4.00;;;;;;;;;;5012325;28;20166;-73
2021/10/23 12:46:11;;;;;;;7.67;3.73;;;;;;;;;;5011210;28;20205;-72
2021/10/23 12:48:36;;;;;;;6.47;3.03;;;;;;;;;;5012427;28;20195;-72
2021/10/23 12:51:03;;;;;;;5.77;3.67;;;;;;;;;;5012261;28;20428;-71
2021/10/23 12:53:28;;;;;;;5.50;3.37;;;;;;;;;;5011852;28;20401;-72
2021/10/23 12:55:53;;;;;;;6.30;3.73;;;;;;;;;;5012388;28;20392;-73
2021/10/23 12:58:19;;;;;;;7.60;4.30;;;;;;;;;;5012178;28;20176;-72
2021/10/23 13:00:46;;;;;;;5.97;3.60;;;;;;;;;;5012124;28;20174;-72
2021/10/23 13:03:12;;;;;;;6.97;3.47;;;;;;;;;;5012403;28;20162;-73
2021/10/23 13:05:37;;;;;;;5.80;3.83;;;;;;;;;;5012114;28;20509;-73
2021/10/23 13:08:03;;;;;;;7.03;3.83;;;;;;;;;;5011809;28;20170;-73
2021/10/23 13:10:28;;;;;;;6.90;4.17;;;;;;;;;;5012308;28;20162;-71
2021/10/23 13:12:54;;;;;;;5.60;2.97;;;;;;;;;;5012023;28;20155;-73
2021/10/23 13:15:21;;;;;;;7.70;3.47;;;;;;;;;;5012240;28;20165;-73
2021/10/23 13:17:46;;;;;;;7.10;4.00;;;;;;;;;;5011941;28;20159;-75
2021/10/23 13:20:12;;;;;;;9.77;4.27;;;;;;;;;;5011712;28;20408;-73
2021/10/23 13:22:39;;;;;;;7.90;3.80;;;;;;;;;;5011833;28;20213;-72
2021/10/23 13:25:05;;;;;;;13.10;4.03;;;;;;;;;;5011913;28;20966;-72
2021/10/23 13:27:30;;;;;;;7.80;4.10;;;;;;;;;;5011434;28;20408;-73
2021/10/23 13:29:55;;;;;;;7.00;3.83;;;;;;;;;;5011549;28;20154;-73
2021/10/23 13:32:21;;;;;;;5.60;3.23;;;;;;;;;;5029458;28;20624;-73
2021/10/23 13:34:46;;;;;;;6.93;4.40;;;;;;;;;;5031187;28;20241;-71
2021/10/23 13:37:12;;;;;;;5.33;3.07;;;;;;;;;;5030950;28;20295;-73
2021/10/23 13:39:37;;;;;;;9.73;3.47;;;;;;;;;;5031594;28;20169;-74
2021/10/23 13:42:03;;;;;;;7.13;4.13;;;;;;;;;;5031074;28;20169;-72
2021/10/23 13:44:30;;;;;;;8.33;3.60;;;;;;;;;;5030553;28;20182;-73
2021/10/23 13:46:55;;;;;;;6.20;3.97;;;;;;;;;;5030271;28;20187;-72
2021/10/23 13:49:20;;;;;;;6.80;3.60;;;;;;;;;;5027040;28;20445;-72
2021/10/23 13:51:46;;;;;;;6.23;4.10;;;;;;;;;;5019825;28;20166;-72
2021/10/23 13:54:12;;;;;;;6.67;3.43;;;;;;;;;;5030801;28;20180;-70
2021/10/23 13:56:37;;;;;;;6.33;3.80;;;;;;;;;;5030689;28;20319;-72
2021/10/23 13:59:02;;;;;;;8.23;3.90;;;;;;;;;;5030492;28;20154;-72
2021/10/23 14:01:28;;;;;;;8.97;3.77;;;;;;;;;;5030787;28;20647;-71
2021/10/23 14:03:53;;;;;;;7.60;3.70;;;;;;;;;;5030945;28;20154;-73
2021/10/23 14:06:19;;;;;;;5.83;3.30;;;;;;;;;;5031280;28;20296;-74
2021/10/23 14:08:44;;;;;;;8.50;3.50;;;;;;;;;;5030525;28;20165;-73
2021/10/23 14:11:09;;;;;;;5.63;3.17;;;;;;;;;;5030675;28;20184;-73
2021/10/23 14:13:34;;;;;;;10.90;3.67;;;;;;;;;;5030803;28;20162;-73
2021/10/23 14:16:00;;;;;;;7.50;4.10;;;;;;;;;;5030565;28;20211;-72
2021/10/23 14:18:28;;;;;;;5.97;3.57;;;;;;;;;;5030724;28;20161;-71
2021/10/23 14:20:54;;;;;;;10.50;4.07;;;;;;;;;;5030929;28;20146;-70
2021/10/23 14:23:20;;;;;;;8.10;4.40;;;;;;;;;;5030636;28;20539;-70
2021/10/23 14:25:50;;;;;;;6.73;3.90;;;;;;;;;;5023626;28;20544;-71
2021/10/23 14:29:00;;;;;;;11.27;4.97;;;;;;;;;;5010496;28;20386;-71